Time;durP1;ratioP1;P1;durP2;ratioP2;P2;SDS_P1;SDS_P2;PMS_P1;PMS_P2;Temp;Humidity;BMP_temperature;BMP_pressure;BME280_temperature;BME280_humidity;BME280_pressure;Samples;Min_cycle;Max_cycle;Signal;HPM_P1;HPM_P2
2023/09/20 00:01:51;;;;;;;2.63;1.80;;;19.80;99.90;;;;;;5084699;28;20853;-81
2023/09/20 00:04:17;;;;;;;3.03;1.70;;;19.80;99.90;;;;;;5084025;28;21104;-81
2023/09/20 00:06:42;;;;;;;1.93;1.40;;;19.80;99.90;;;;;;5084142;28;20430;-81
2023/09/20 00:09:08;;;;;;;4.30;1.90;;;19.70;99.90;;;;;;5085798;28;20176;-81
2023/09/20 00:11:35;;;;;;;4.23;1.70;;;19.70;99.90;;;;;;5083950;28;20712;-81
2023/09/20 00:14:00;;;;;;;2.30;1.60;;;19.70;99.90;;;;;;5087605;28;20180;-81
2023/09/20 00:16:29;;;;;;;2.83;2.00;;;19.70;99.90;;;;;;5089349;28;20755;-81
2023/09/20 00:18:54;;;;;;;1.83;1.73;;;19.70;99.90;;;;;;5089672;28;20175;-81
2023/09/20 00:21:20;;;;;;;1.70;1.60;;;19.60;99.90;;;;;;5087888;28;21174;-82
2023/09/20 00:23:46;;;;;;;2.90;1.50;;;19.60;99.90;;;;;;5088234;28;20574;-81
2023/09/20 00:26:13;;;;;;;2.03;1.83;;;19.60;99.90;;;;;;5087793;28;20486;-81
2023/09/20 00:28:39;;;;;;;2.87;1.80;;;19.60;99.90;;;;;;5089209;28;20449;-82
2023/09/20 00:31:05;;;;;;;1.87;1.50;;;19.50;99.90;;;;;;5089430;28;20607;-81
2023/09/20 00:33:31;;;;;;;2.60;2.10;;;19.50;99.90;;;;;;5087921;28;20691;-81
2023/09/20 00:35:57;;;;;;;1.37;1.30;;;19.40;99.90;;;;;;5087497;28;20459;-82
2023/09/20 00:38:24;;;;;;;3.27;1.80;;;19.40;99.90;;;;;;5089221;28;20645;-82
2023/09/20 00:40:50;;;;;;;1.93;1.80;;;19.30;99.90;;;;;;5087732;28;20211;-81
2023/09/20 00:43:23;;;;;;;2.23;1.70;;;19.30;99.90;;;;;;5087431;28;21135;-82
2023/09/20 00:45:49;;;;;;;2.40;1.97;;;19.30;99.90;;;;;;5089100;28;21003;-81
2023/09/20 00:48:16;;;;;;;3.40;1.70;;;19.20;99.90;;;;;;5089241;28;20411;-82
2023/09/20 00:50:43;;;;;;;2.23;1.47;;;19.20;99.90;;;;;;5089329;28;20953;-82
2023/09/20 00:53:11;;;;;;;2.33;1.90;;;19.10;99.90;;;;;;5088434;28;20699;-81
2023/09/20 00:55:38;;;;;;;7.50;1.73;;;19.10;99.90;;;;;;5086934;28;21087;-83
2023/09/20 00:58:07;;;;;;;2.37;1.83;;;19.10;99.90;;;;;;5087394;28;20415;-82
2023/09/20 01:00:36;;;;;;;2.60;1.90;;;19.10;99.90;;;;;;5087178;28;20439;-81
2023/09/20 01:03:02;;;;;;;2.10;1.70;;;19.10;99.90;;;;;;5086436;28;20415;-82
2023/09/20 01:05:33;;;;;;;1.70;1.60;;;19.00;99.90;;;;;;5086533;28;20488;-81
2023/09/20 01:08:00;;;;;;;2.13;1.50;;;19.00;99.90;;;;;;5088937;28;20406;-82
2023/09/20 01:10:27;;;;;;;3.33;2.07;;;18.90;99.90;;;;;;5087011;28;20444;-82
2023/09/20 01:12:58;;;;;;;2.37;2.17;;;18.90;99.90;;;;;;5088357;28;20867;-81
2023/09/20 01:15:25;;;;;;;2.90;1.90;;;18.80;99.90;;;;;;5088507;28;20527;-81
2023/09/20 01:17:58;;;;;;;3.80;1.57;;;18.80;99.90;;;;;;5088497;28;20411;-81
2023/09/20 01:20:28;;;;;;;2.43;2.10;;;18.80;99.90;;;;;;5087997;28;20458;-81
2023/09/20 01:22:59;;;;;;;2.57;2.20;;;18.90;99.90;;;;;;5088464;28;20437;-81
2023/09/20 01:25:35;;;;;;;3.30;2.30;;;18.90;99.90;;;;;;5088003;28;20504;-82
2023/09/20 01:28:03;;;;;;;2.60;1.80;;;18.90;99.90;;;;;;5088227;28;20767;-81
2023/09/20 01:30:30;;;;;;;3.07;2.17;;;18.90;99.90;;;;;;5087843;28;20962;-82
2023/09/20 01:33:09;;;;;;;3.17;1.70;;;18.90;99.90;;;;;;5088212;28;20433;-83
2023/09/20 01:35:37;;;;;;;1.90;1.70;;;18.90;99.90;;;;;;5087973;28;20469;-81
2023/09/20 01:38:06;;;;;;;2.80;2.27;;;19.00;99.90;;;;;;5087863;28;20491;-82
2023/09/20 01:40:33;;;;;;;2.40;1.83;;;19.00;99.90;;;;;;5086686;28;20455;-82
2023/09/20 01:43:00;;;;;;;2.77;1.60;;;18.90;99.90;;;;;;5087768;28;20402;-81
2023/09/20 01:45:26;;;;;;;2.37;2.10;;;19.00;99.90;;;;;;5087514;28;20478;-81
2023/09/20 01:47:55;;;;;;;3.17;2.17;;;18.90;99.90;;;;;;5087961;28;20778;-81
2023/09/20 01:50:25;;;;;;;1.70;1.60;;;18.90;99.90;;;;;;5086305;28;20458;-82
2023/09/20 01:52:55;;;;;;;2.10;1.63;;;18.90;99.90;;;;;;5086286;28;20420;-82
2023/09/20 01:55:22;;;;;;;2.50;2.10;;;18.90;99.90;;;;;;5087430;28;20436;-82
2023/09/20 01:57:49;;;;;;;2.07;1.73;;;18.90;99.90;;;;;;5086253;28;20412;-81
2023/09/20 02:00:24;;;;;;;1.90;1.70;;;18.80;99.90;;;;;;5086125;28;20775;-81
2023/09/20 02:02:51;;;;;;;2.40;1.97;;;18.80;99.90;;;;;;5086630;28;20442;-81
2023/09/20 02:05:17;;;;;;;2.10;1.73;;;18.80;99.90;;;;;;5087007;28;20506;-81
2023/09/20 02:07:45;;;;;;;1.50;1.40;;;18.80;99.90;;;;;;5086157;28;20429;-82
2023/09/20 02:10:11;;;;;;;1.93;1.50;;;18.80;99.90;;;;;;5087364;28;20446;-81
2023/09/20 02:12:37;;;;;;;2.20;1.77;;;18.80;99.90;;;;;;5087607;28;20902;-82
2023/09/20 02:15:07;;;;;;;3.20;2.17;;;18.70;99.90;;;;;;5085549;28;20464;-82
2023/09/20 02:17:35;;;;;;;1.70;1.60;;;18.70;99.90;;;;;;5086301;28;20191;-82
2023/09/20 02:20:08;;;;;;;4.30;2.13;;;18.70;99.90;;;;;;5085633;28;20482;-82
2023/09/20 02:22:35;;;;;;;2.80;2.07;;;18.70;99.90;;;;;;5087191;28;20398;-81
2023/09/20 02:25:03;;;;;;;2.40;1.70;;;18.70;99.90;;;;;;5086931;28;20529;-81
2023/09/20 02:27:30;;;;;;;4.73;2.33;;;18.70;99.90;;;;;;5087277;28;20407;-80
2023/09/20 02:29:56;;;;;;;3.73;1.80;;;18.70;99.90;;;;;;5085265;28;20449;-82
2023/09/20 02:32:23;;;;;;;6.03;2.20;;;18.70;99.90;;;;;;5086755;28;20702;-81
2023/09/20 02:34:49;;;;;;;3.23;2.20;;;18.70;99.90;;;;;;5084862;28;20276;-82
2023/09/20 02:37:15;;;;;;;5.50;2.30;;;18.60;99.90;;;;;;5085092;28;20725;-82
2023/09/20 02:39:41;;;;;;;2.40;2.20;;;18.60;99.90;;;;;;5086767;28;20592;-82
2023/09/20 02:42:07;;;;;;;1.83;1.73;;;18.60;99.90;;;;;;5085104;28;20260;-81
2023/09/20 02:44:32;;;;;;;2.63;2.30;;;18.60;99.90;;;;;;5085142;28;20479;-82
2023/09/20 02:46:58;;;;;;;2.00;1.57;;;18.60;99.90;;;;;;5086677;28;20562;-82
2023/09/20 02:49:24;;;;;;;2.10;1.73;;;18.60;99.90;;;;;;5085382;28;20185;-81
2023/09/20 02:51:51;;;;;;;2.30;2.10;;;18.60;99.90;;;;;;5085171;28;20656;-81
2023/09/20 02:54:17;;;;;;;3.07;1.77;;;18.60;99.90;;;;;;5084816;28;20223;-82
2023/09/20 02:56:44;;;;;;;5.20;2.30;;;18.60;99.90;;;;;;5084563;28;20687;-81
2023/09/20 02:59:10;;;;;;;4.40;2.40;;;18.50;99.90;;;;;;5086426;28;20984;-81
2023/09/20 03:01:36;;;;;;;2.80;2.00;;;18.50;99.90;;;;;;5085746;28;20438;-81
2023/09/20 03:04:03;;;;;;;2.50;2.00;;;18.40;99.90;;;;;;5085939;28;20205;-81
2023/09/20 03:06:29;;;;;;;3.00;2.10;;;18.40;99.90;;;;;;5084758;28;20297;-81
2023/09/20 03:08:56;;;;;;;4.63;2.53;;;18.40;99.90;;;;;;5085067;28;20643;-82
2023/09/20 03:11:22;;;;;;;2.03;1.90;;;18.30;99.90;;;;;;5086127;28;20351;-81
2023/09/20 03:13:48;;;;;;;2.57;2.30;;;18.40;99.90;;;;;;5084823;28;20457;-82
2023/09/20 03:16:18;;;;;;;2.77;1.63;;;18.50;99.90;;;;;;5084801;28;20513;-81
2023/09/20 03:18:45;;;;;;;2.53;2.37;;;18.60;99.90;;;;;;5084689;28;20624;-82
2023/09/20 03:21:11;;;;;;;2.43;1.80;;;18.60;99.90;;;;;;5084825;28;20679;-82
2023/09/20 03:23:37;;;;;;;2.37;1.80;;;18.60;99.90;;;;;;5084612;28;20436;-81
2023/09/20 03:26:04;;;;;;;2.00;1.73;;;18.60;99.90;;;;;;5086086;28;20818;-81
2023/09/20 03:28:33;;;;;;;2.47;1.73;;;18.60;99.90;;;;;;5086130;28;21164;-81
2023/09/20 03:31:05;;;;;;;2.63;2.00;;;18.60;99.90;;;;;;5086331;28;20457;-82
2023/09/20 03:33:31;;;;;;;3.33;2.30;;;18.60;99.90;;;;;;5084680;28;20436;-80
2023/09/20 03:36:02;;;;;;;2.60;1.73;;;18.60;99.90;;;;;;5084338;28;20439;-82
2023/09/20 03:38:27;;;;;;;3.00;2.50;;;18.60;99.90;;;;;;5085843;28;20413;-81
2023/09/20 03:40:53;;;;;;;3.00;2.43;;;18.50;99.90;;;;;;5084303;28;20434;-82
2023/09/20 03:43:19;;;;;;;2.40;2.20;;;18.40;99.90;;;;;;5084563;28;20412;-82
2023/09/20 03:45:45;;;;;;;3.27;2.30;;;18.40;99.90;;;;;;5086022;28;20231;-80
2023/09/20 03:48:11;;;;;;;2.57;2.37;;;18.30;99.90;;;;;;5086635;28;20427;-80
2023/09/20 03:50:43;;;;;;;2.33;1.80;;;18.30;99.90;;;;;;5089834;28;20802;-80
2023/09/20 03:53:09;;;;;;;2.53;2.20;;;18.20;99.90;;;;;;5088411;28;20221;-80
2023/09/20 03:55:35;;;;;;;2.00;1.80;;;18.20;99.90;;;;;;5088345;28;20657;-82
2023/09/20 03:58:00;;;;;;;37.13;17.70;;;18.10;99.90;;;;;;5088080;28;20177;-81
2023/09/20 04:00:27;;;;;;;64.97;28.43;;;18.10;99.90;;;;;;5088054;28;20206;-81
2023/09/20 04:02:54;;;;;;;4.13;2.67;;;18.10;99.90;;;;;;5087480;28;20176;-82
2023/09/20 04:05:20;;;;;;;3.13;2.83;;;18.00;99.90;;;;;;5088210;28;20485;-82
2023/09/20 04:07:47;;;;;;;2.93;2.53;;;18.00;99.90;;;;;;5089697;28;20416;-81
2023/09/20 04:10:15;;;;;;;2.87;2.17;;;18.00;99.90;;;;;;5088691;28;20436;-81
2023/09/20 04:12:41;;;;;;;3.43;2.10;;;17.90;99.90;;;;;;5086568;28;21106;-80
2023/09/20 04:15:08;;;;;;;4.70;3.23;;;17.90;99.90;;;;;;5086945;28;20687;-80
2023/09/20 04:17:38;;;;;;;2.57;2.30;;;17.90;99.90;;;;;;5089584;28;20174;-80
2023/09/20 04:20:05;;;;;;;3.60;2.73;;;17.90;99.90;;;;;;5087949;28;20449;-80
2023/09/20 04:22:31;;;;;;;4.20;2.77;;;17.90;99.90;;;;;;5089601;28;20427;-81
2023/09/20 04:24:59;;;;;;;3.27;2.60;;;17.90;99.90;;;;;;5089020;28;20477;-82
2023/09/20 04:27:25;;;;;;;2.83;2.63;;;17.90;99.90;;;;;;5085318;28;20965;-80
2023/09/20 04:29:50;;;;;;;6.17;3.47;;;17.90;99.90;;;;;;5087395;28;20441;-80
2023/09/20 04:32:16;;;;;;;2.90;2.33;;;17.90;99.90;;;;;;5087199;28;20494;-82
2023/09/20 04:34:42;;;;;;;4.70;3.30;;;17.90;99.90;;;;;;5087366;28;20189;-80
2023/09/20 04:37:09;;;;;;;4.57;3.00;;;17.90;99.90;;;;;;5081769;28;20197;-80
2023/09/20 04:39:34;;;;;;;3.23;3.00;;;17.90;99.90;;;;;;5073718;28;20693;-81
2023/09/20 04:42:00;;;;;;;3.90;3.60;;;17.90;99.90;;;;;;5084133;28;20410;-80
2023/09/20 04:44:25;;;;;;;2.37;2.10;;;17.90;99.90;;;;;;5086923;28;20220;-81
2023/09/20 04:46:52;;;;;;;3.30;2.43;;;17.90;99.90;;;;;;5083595;28;20552;-80
2023/09/20 04:49:19;;;;;;;3.13;2.83;;;17.90;99.90;;;;;;5087311;28;20344;-82
2023/09/20 04:51:45;;;;;;;3.27;2.70;;;17.90;99.90;;;;;;5087008;28;20525;-80
2023/09/20 04:54:12;;;;;;;2.40;2.20;;;18.00;99.90;;;;;;5086762;28;20478;-80
2023/09/20 04:56:40;;;;;;;3.07;2.87;;;17.90;99.90;;;;;;5087514;28;20567;-81
2023/09/20 04:59:09;;;;;;;3.73;3.20;;;18.00;99.90;;;;;;5085878;28;20793;-81
2023/09/20 05:01:35;;;;;;;3.73;3.00;;;18.00;99.90;;;;;;5088579;28;20436;-81
2023/09/20 05:04:01;;;;;;;2.80;2.40;;;18.00;99.90;;;;;;5086342;28;20463;-80
2023/09/20 05:06:26;;;;;;;2.80;2.60;;;18.00;99.90;;;;;;5085387;28;20605;-81
2023/09/20 05:08:53;;;;;;;3.20;2.40;;;18.00;99.90;;;;;;5088523;28;20173;-81
2023/09/20 05:11:19;;;;;;;5.93;3.10;;;18.00;99.90;;;;;;5085767;28;20216;-82
2023/09/20 05:13:45;;;;;;;5.97;3.50;;;18.10;99.90;;;;;;5086392;28;20418;-81
2023/09/20 05:16:11;;;;;;;4.60;3.37;;;18.20;99.90;;;;;;5087835;28;20433;-81
2023/09/20 05:18:37;;;;;;;4.67;3.50;;;18.20;99.90;;;;;;5086491;28;20439;-80
2023/09/20 05:21:03;;;;;;;5.30;4.17;;;18.30;99.90;;;;;;5085333;28;20496;-80
2023/09/20 05:23:29;;;;;;;8.27;6.60;;;18.40;99.90;;;;;;5071486;28;20944;-80
2023/09/20 05:25:55;;;;;;;7.97;6.17;;;18.40;99.90;;;;;;5076364;28;20482;-80
2023/09/20 05:28:20;;;;;;;5.23;4.13;;;18.50;99.90;;;;;;5087456;28;20794;-81
2023/09/20 05:30:46;;;;;;;11.20;4.10;;;18.50;99.90;;;;;;5085852;28;20211;-81
2023/09/20 05:33:12;;;;;;;3.20;2.80;;;18.60;99.90;;;;;;5085723;28;20236;-81
2023/09/20 05:35:42;;;;;;;3.37;3.03;;;18.70;99.90;;;;;;5085199;28;20206;-82
2023/09/20 05:38:09;;;;;;;6.13;3.07;;;18.70;99.90;;;;;;5084741;28;20848;-81
2023/09/20 05:40:35;;;;;;;3.57;2.87;;;18.80;99.90;;;;;;5080612;28;20443;-80
2023/09/20 05:43:04;;;;;;;3.30;2.50;;;18.90;99.90;;;;;;5084224;28;20535;-82
2023/09/20 05:45:34;;;;;;;3.10;2.87;;;19.00;99.90;;;;;;5078176;28;20496;-82
2023/09/20 05:48:01;;;;;;;3.50;3.20;;;19.10;99.90;;;;;;5077360;28;20796;-81
2023/09/20 05:50:33;;;;;;;3.60;3.00;;;19.20;99.90;;;;;;5079817;28;20567;-80
2023/09/20 05:53:06;;;;;;;3.60;2.73;;;19.30;99.90;;;;;;5075781;28;20432;-81
2023/09/20 05:55:36;;;;;;;3.53;2.70;;;19.50;99.90;;;;;;5081444;28;20896;-82
2023/09/20 05:58:02;;;;;;;3.77;3.20;;;19.50;99.90;;;;;;5084697;28;20469;-80
2023/09/20 06:00:29;;;;;;;4.23;2.80;;;19.70;99.90;;;;;;5083609;28;20781;-81
2023/09/20 06:02:58;;;;;;;3.87;3.03;;;19.80;99.90;;;;;;5077930;28;20440;-82
2023/09/20 06:05:25;;;;;;;3.73;3.23;;;19.90;99.90;;;;;;5078271;28;20613;-81
2023/09/20 06:07:56;;;;;;;3.20;2.90;;;20.00;99.90;;;;;;5076265;28;20905;-80
2023/09/20 06:10:22;;;;;;;4.43;3.53;;;20.10;99.90;;;;;;5079765;28;20654;-82
2023/09/20 06:12:48;;;;;;;4.60;3.40;;;20.20;99.90;;;;;;5080327;28;21016;-80
2023/09/20 06:15:14;;;;;;;3.43;3.00;;;20.30;99.90;;;;;;5079795;28;20450;-82
2023/09/20 06:17:42;;;;;;;5.70;2.90;;;20.40;99.90;;;;;;5067369;28;20448;-80
2023/09/20 06:20:11;;;;;;;2.93;2.03;;;20.50;99.90;;;;;;5083530;28;20207;-80
2023/09/20 06:22:38;;;;;;;2.77;2.50;;;20.60;99.90;;;;;;5081759;28;20444;-82
2023/09/20 06:25:05;;;;;;;4.73;2.77;;;20.70;99.90;;;;;;5064929;28;20492;-82
2023/09/20 06:27:31;;;;;;;3.70;2.30;;;20.80;99.90;;;;;;5078079;28;20415;-81
2023/09/20 06:29:57;;;;;;;3.17;2.80;;;20.90;99.90;;;;;;5081524;28;20547;-80
2023/09/20 06:32:23;;;;;;;4.80;2.50;;;21.00;99.90;;;;;;5076769;28;20257;-81
2023/09/20 06:34:49;;;;;;;3.00;2.50;;;21.10;99.90;;;;;;5074658;28;20445;-80
2023/09/20 06:37:14;;;;;;;3.33;2.53;;;21.20;99.90;;;;;;5078544;28;21129;-81
2023/09/20 06:39:44;;;;;;;4.77;2.07;;;21.20;99.90;;;;;;5082963;28;20414;-81
2023/09/20 06:42:10;;;;;;;2.30;2.10;;;21.30;99.90;;;;;;5082087;28;20180;-81
2023/09/20 06:44:38;;;;;;;3.70;2.50;;;21.40;99.90;;;;;;5078618;28;20538;-82
2023/09/20 06:47:05;;;;;;;2.73;2.50;;;21.60;99.90;;;;;;5075591;28;20567;-81
2023/09/20 06:49:31;;;;;;;4.20;2.27;;;21.70;99.90;;;;;;5080142;28;20447;-82
2023/09/20 06:52:01;;;;;;;2.87;2.10;;;21.70;99.90;;;;;;5079765;28;20540;-81
2023/09/20 06:54:28;;;;;;;2.87;2.37;;;21.90;99.90;;;;;;5080265;28;20702;-81
2023/09/20 06:56:54;;;;;;;3.90;2.07;;;22.00;99.90;;;;;;5082080;28;20433;-81
2023/09/20 06:59:20;;;;;;;4.00;2.40;;;22.10;99.90;;;;;;5083627;28;21004;-81
2023/09/20 07:01:47;;;;;;;3.00;2.50;;;22.20;99.90;;;;;;5082736;28;20519;-81
2023/09/20 07:04:13;;;;;;;2.57;2.37;;;22.30;99.90;;;;;;5079102;28;20578;-81
2023/09/20 07:06:39;;;;;;;2.07;1.67;;;22.40;99.90;;;;;;5082487;28;20531;-81
2023/09/20 07:09:05;;;;;;;2.50;2.30;;;22.50;99.90;;;;;;5079470;28;20279;-81
2023/09/20 07:11:31;;;;;;;3.03;2.50;;;22.60;99.90;;;;;;5073994;28;20499;-80
2023/09/20 07:13:59;;;;;;;2.30;2.10;;;22.80;99.90;;;;;;5079621;28;20765;-81
2023/09/20 07:16:25;;;;;;;2.83;2.03;;;22.90;99.90;;;;;;5071538;28;20536;-80
2023/09/20 07:18:51;;;;;;;3.20;2.27;;;23.00;99.90;;;;;;5070396;28;20698;-81
2023/09/20 07:21:17;;;;;;;4.27;2.47;;;23.10;99.90;;;;;;5080486;28;20826;-82
2023/09/20 07:23:43;;;;;;;3.07;2.43;;;23.20;99.90;;;;;;5069076;28;20991;-80
2023/09/20 07:26:08;;;;;;;2.60;2.10;;;23.40;99.90;;;;;;5077148;28;20690;-81
2023/09/20 07:28:36;;;;;;;2.47;2.27;;;23.50;99.90;;;;;;5074683;28;20569;-81
2023/09/20 07:31:03;;;;;;;2.10;1.90;;;23.60;99.90;;;;;;5074731;28;20691;-82
2023/09/20 07:33:29;;;;;;;1.70;1.60;;;23.70;99.90;;;;;;5077933;28;20451;-82
2023/09/20 07:36:00;;;;;;;2.53;2.33;;;23.80;99.90;;;;;;5082922;28;20564;-82
2023/09/20 07:38:28;;;;;;;2.70;1.97;;;23.80;99.90;;;;;;5078329;28;20953;-81
2023/09/20 07:41:17;;;;;;;2.50;2.30;;;23.90;99.90;;;;;;5073312;28;20456;-83
2023/09/20 07:43:44;;;;;;;6.47;3.00;;;24.10;99.90;;;;;;5076851;28;20466;-82
2023/09/20 07:46:13;;;;;;;2.23;1.93;;;24.20;99.90;;;;;;5076635;28;20528;-83
2023/09/20 07:48:50;;;;;;;2.80;1.77;;;24.30;99.90;;;;;;5075495;28;20501;-82
2023/09/20 07:51:28;;;;;;;1.97;1.53;;;24.40;99.90;;;;;;5071580;28;20451;-82
2023/09/20 07:53:54;;;;;;;2.13;1.93;;;24.60;99.90;;;;;;5078421;28;20558;-83
2023/09/20 07:56:21;;;;;;;2.07;1.93;;;24.70;99.90;;;;;;5075806;28;20457;-82
2023/09/20 07:58:47;;;;;;;1.93;1.77;;;24.80;99.90;;;;;;5075279;28;20614;-82
2023/09/20 08:01:20;;;;;;;2.33;2.10;;;25.00;99.90;;;;;;5073776;28;20463;-82
2023/09/20 08:03:52;;;;;;;2.87;1.80;;;25.10;99.90;;;;;;5076758;28;20708;-83
2023/09/20 08:06:19;;;;;;;4.53;1.70;;;25.30;99.90;;;;;;5074766;28;20457;-83
2023/09/20 08:08:45;;;;;;;2.63;2.03;;;25.40;99.90;;;;;;5092785;28;20824;-82
2023/09/20 08:11:11;;;;;;;1.90;1.60;;;25.50;99.90;;;;;;5071756;28;20526;-81
2023/09/20 08:13:36;;;;;;;2.27;1.73;;;25.70;99.90;;;;;;5077576;28;20494;-82
2023/09/20 08:16:02;;;;;;;1.37;1.10;;;26.00;99.90;;;;;;5073843;28;20241;-81
2023/09/20 08:21:13;;;;;;;1.40;1.30;;;27.40;99.90;;;;;;5069898;28;20492;-82
2023/09/20 09:02:17;;;;;;;1.10;1.10;;;30.40;98.80;;;;;;5083801;28;20423;-81
2023/09/20 09:04:53;;;;;;;1.23;1.13;;;30.30;98.50;;;;;;5082456;28;20494;-82
2023/09/20 09:07:20;;;;;;;1.23;1.13;;;30.50;98.50;;;;;;5082626;28;20740;-82
2023/09/20 09:09:46;;;;;;;6.23;1.37;;;30.70;98.40;;;;;;5082534;28;20474;-81
2023/09/20 09:12:12;;;;;;;1.40;1.20;;;30.70;98.00;;;;;;5080170;28;20468;-82
2023/09/20 09:14:39;;;;;;;2.20;1.20;;;30.90;97.20;;;;;;5074334;28;20565;-82
2023/09/20 09:17:06;;;;;;;1.40;1.30;;;30.90;96.60;;;;;;5076794;28;20470;-82
2023/09/20 09:19:33;;;;;;;1.23;1.20;;;30.60;97.00;;;;;;5077109;28;20461;-81
2023/09/20 09:22:00;;;;;;;1.53;1.17;;;30.40;96.70;;;;;;5082264;28;20431;-82
2023/09/20 09:24:27;;;;;;;1.53;1.37;;;30.30;96.60;;;;;;5073403;28;20467;-81
2023/09/20 09:27:06;;;;;;;1.43;1.03;;;30.10;97.20;;;;;;5079975;28;20734;-82
2023/09/20 09:29:32;;;;;;;0.97;0.97;;;29.80;96.00;;;;;;5072217;28;20447;-82
2023/09/20 09:32:00;;;;;;;1.13;1.03;;;29.70;95.90;;;;;;5080346;28;21350;-81
2023/09/20 09:34:26;;;;;;;1.83;1.70;;;29.40;95.80;;;;;;5078590;28;20983;-81
2023/09/20 09:36:55;;;;;;;1.43;1.23;;;29.20;96.20;;;;;;5082087;28;20425;-81
2023/09/20 09:39:21;;;;;;;1.37;1.27;;;29.00;96.50;;;;;;5077097;28;20446;-81
2023/09/20 09:41:47;;;;;;;1.00;0.97;;;28.90;96.80;;;;;;5078641;28;20434;-81
2023/09/20 09:44:15;;;;;;;1.13;1.03;;;28.80;96.80;;;;;;5081684;28;21133;-80
2023/09/20 09:46:42;;;;;;;1.10;1.03;;;28.70;97.30;;;;;;5075022;28;20235;-83
2023/09/20 09:49:11;;;;;;;1.03;0.90;;;28.60;97.60;;;;;;5079211;28;20525;-82
2023/09/20 09:51:52;;;;;;;1.30;1.00;;;28.60;97.80;;;;;;5079941;28;20435;-83
2023/09/20 09:54:31;;;;;;;1.50;1.30;;;28.50;97.70;;;;;;5080618;28;20475;-83
2023/09/20 09:56:56;;;;;;;1.23;1.13;;;28.50;96.30;;;;;;5080006;28;20868;-82
2023/09/20 09:59:22;;;;;;;1.60;1.30;;;28.50;96.00;;;;;;5079505;28;20482;-82
2023/09/20 10:01:50;;;;;;;1.47;1.13;;;28.50;96.00;;;;;;5073055;28;20187;-82
2023/09/20 10:04:17;;;;;;;1.20;1.10;;;28.50;96.80;;;;;;5066769;28;20208;-81
2023/09/20 10:07:01;;;;;;;1.80;1.13;;;28.60;97.10;;;;;;5077721;28;20501;-82
2023/09/20 10:09:33;;;;;;;1.30;1.20;;;28.60;96.00;;;;;;5078864;28;20790;-81
2023/09/20 10:11:59;;;;;;;1.47;1.10;;;28.60;95.90;;;;;;5080182;28;20511;-81
2023/09/20 10:14:25;;;;;;;1.20;1.10;;;28.50;95.70;;;;;;5079452;28;21152;-81
2023/09/20 10:16:50;;;;;;;1.10;1.00;;;28.50;95.60;;;;;;5072153;28;20514;-82
2023/09/20 10:19:16;;;;;;;1.40;1.07;;;28.50;95.80;;;;;;5077809;28;20296;-81
2023/09/20 10:22:09;;;;;;;1.27;1.17;;;28.40;96.50;;;;;;5076393;28;20843;-81
2023/09/20 10:24:55;;;;;;;1.63;1.07;;;28.40;96.40;;;;;;5076486;28;20219;-82
2023/09/20 10:27:22;;;;;;;1.13;1.13;;;28.40;96.90;;;;;;5074297;28;21217;-81
2023/09/20 10:30:09;;;;;;;1.30;1.07;;;28.50;96.00;;;;;;5097915;28;20862;-82
2023/09/20 10:32:56;;;;;;;1.20;1.03;;;28.50;95.80;;;;;;5081734;28;20420;-81
2023/09/20 10:35:33;;;;;;;3.17;1.10;;;28.50;95.30;;;;;;5079667;28;21034;-81
2023/09/20 10:38:07;;;;;;;3.07;1.30;;;28.50;94.80;;;;;;5082670;28;20473;-81
2023/09/20 10:40:45;;;;;;;1.27;1.17;;;28.50;94.70;;;;;;5078644;28;20525;-81
2023/09/20 10:43:25;;;;;;;1.40;1.30;;;28.50;95.40;;;;;;5073444;28;20439;-81
2023/09/20 10:45:53;;;;;;;1.30;1.20;;;28.50;94.30;;;;;;5079920;28;20483;-81
2023/09/20 10:48:30;;;;;;;1.50;1.00;;;28.50;94.70;;;;;;5079420;28;20419;-84
2023/09/20 10:50:59;;;;;;;1.20;1.10;;;28.40;95.00;;;;;;5079318;28;20967;-82
2023/09/20 10:53:50;;;;;;;1.30;1.03;;;28.40;95.60;;;;;;5078780;28;20464;-82
2023/09/20 10:56:53;;;;;;;1.00;0.90;;;28.40;94.70;;;;;;5076586;28;20463;-82
2023/09/20 10:59:21;;;;;;;1.50;1.40;;;28.40;94.50;;;;;;5071678;28;20508;-81
2023/09/20 11:01:51;;;;;;;1.60;1.20;;;28.50;94.50;;;;;;5074739;28;20418;-82
2023/09/20 11:04:17;;;;;;;1.10;1.00;;;28.50;94.00;;;;;;5071562;28;20448;-83
2023/09/20 11:06:48;;;;;;;1.03;0.93;;;28.50;93.70;;;;;;5064392;28;21151;-81
2023/09/20 11:09:15;;;;;;;1.63;1.53;;;28.50;95.00;;;;;;5066509;28;20432;-81
2023/09/20 11:11:42;;;;;;;1.17;1.10;;;28.60;93.90;;;;;;5072113;28;20493;-81
2023/09/20 11:14:12;;;;;;;1.50;1.40;;;28.60;94.50;;;;;;5074684;28;20490;-82
2023/09/20 11:16:41;;;;;;;1.20;0.80;;;28.60;94.40;;;;;;5076156;28;20429;-80
2023/09/20 11:19:16;;;;;;;1.47;0.90;;;28.60;95.20;;;;;;5072300;28;20467;-82
2023/09/20 11:21:42;;;;;;;1.60;1.10;;;28.70;93.70;;;;;;5072116;28;20414;-81
2023/09/20 11:24:09;;;;;;;1.17;1.00;;;28.70;93.50;;;;;;5072626;28;20974;-81
2023/09/20 11:26:36;;;;;;;1.03;0.93;;;28.80;93.10;;;;;;5066446;28;20425;-81
2023/09/20 11:29:02;;;;;;;1.60;1.00;;;28.80;93.00;;;;;;5073267;28;20440;-81
2023/09/20 11:31:31;;;;;;;1.87;0.97;;;28.80;93.40;;;;;;5075274;28;20464;-81
2023/09/20 11:34:02;;;;;;;1.03;0.83;;;28.90;94.50;;;;;;5070489;28;20456;-82
2023/09/20 11:36:28;;;;;;;1.30;1.07;;;28.90;93.30;;;;;;5072309;28;20524;-82
2023/09/20 11:38:54;;;;;;;0.90;0.90;;;28.90;93.20;;;;;;5071216;28;20422;-81
2023/09/20 11:41:24;;;;;;;1.10;0.97;;;28.90;93.10;;;;;;5073506;28;20205;-81
2023/09/20 11:43:55;;;;;;;1.33;1.23;;;29.00;93.60;;;;;;5032716;28;20798;-81
2023/09/20 11:46:21;;;;;;;1.10;0.87;;;29.00;93.80;;;;;;5073767;28;20469;-81
2023/09/20 11:48:49;;;;;;;0.90;0.90;;;29.00;93.60;;;;;;5071896;28;20437;-81
2023/09/20 11:51:16;;;;;;;0.80;0.80;;;29.00;93.70;;;;;;5069426;28;20598;-82
2023/09/20 11:53:44;;;;;;;0.87;0.80;;;29.00;93.10;;;;;;5077968;28;20512;-82
2023/09/20 11:56:10;;;;;;;1.20;1.10;;;29.00;93.00;;;;;;5078889;28;20458;-83
2023/09/20 11:58:36;;;;;;;6.90;1.27;;;29.00;94.40;;;;;;5079681;28;20442;-82
2023/09/20 12:01:06;;;;;;;1.73;1.20;;;29.00;94.40;;;;;;5085253;28;20231;-82
2023/09/20 12:03:32;;;;;;;2.27;1.50;;;29.00;94.50;;;;;;5072034;28;20498;-82
2023/09/20 12:05:58;;;;;;;1.40;1.30;;;29.10;93.20;;;;;;5073739;28;20851;-82
2023/09/20 12:08:30;;;;;;;1.73;1.37;;;29.10;93.10;;;;;;5078836;28;20435;-81
2023/09/20 12:10:56;;;;;;;1.23;1.13;;;29.20;93.40;;;;;;5079573;28;20298;-81
2023/09/20 12:13:22;;;;;;;1.43;1.23;;;29.10;94.50;;;;;;5072682;28;21062;-82
2023/09/20 12:15:48;;;;;;;2.53;1.27;;;29.10;94.60;;;;;;5072076;28;20574;-82
2023/09/20 12:18:14;;;;;;;1.23;1.13;;;29.10;94.70;;;;;;5078305;28;20505;-81
2023/09/20 12:20:41;;;;;;;1.40;1.00;;;29.10;93.10;;;;;;5078357;28;20403;-81
2023/09/20 12:23:08;;;;;;;1.20;1.03;;;29.10;93.20;;;;;;5086165;28;20432;-83
2023/09/20 12:25:35;;;;;;;1.30;1.20;;;29.20;93.90;;;;;;5077892;28;20488;-82
2023/09/20 12:28:01;;;;;;;2.97;1.67;;;29.20;93.20;;;;;;5076791;28;20682;-81
2023/09/20 12:30:28;;;;;;;1.83;1.40;;;29.30;93.00;;;;;;5076920;28;20641;-81
2023/09/20 12:32:57;;;;;;;1.30;1.20;;;29.30;92.60;;;;;;5077132;28;20439;-80
2023/09/20 12:35:23;;;;;;;1.20;0.83;;;29.20;92.10;;;;;;5077851;28;20460;-81
2023/09/20 12:37:48;;;;;;;1.40;0.93;;;29.20;92.00;;;;;;5075664;28;20439;-82
2023/09/20 12:40:14;;;;;;;1.30;1.20;;;29.20;91.90;;;;;;5064584;28;20754;-81
2023/09/20 12:42:40;;;;;;;1.30;1.20;;;29.10;92.30;;;;;;5082374;28;20396;-83
2023/09/20 12:45:07;;;;;;;3.20;1.67;;;29.10;92.30;;;;;;5078071;28;20217;-83
2023/09/20 12:47:34;;;;;;;1.13;1.03;;;29.10;92.00;;;;;;5081166;28;20397;-81
2023/09/20 12:50:00;;;;;;;1.90;1.30;;;29.10;92.00;;;;;;5080414;28;20553;-82
2023/09/20 12:52:27;;;;;;;1.33;1.10;;;29.10;92.00;;;;;;5074512;28;20831;-81
2023/09/20 12:54:53;;;;;;;1.43;1.10;;;29.10;91.80;;;;;;5063231;28;20513;-81
2023/09/20 12:57:20;;;;;;;1.20;1.10;;;29.00;92.20;;;;;;5069579;28;21261;-82
2023/09/20 12:59:46;;;;;;;1.70;1.40;;;29.00;92.50;;;;;;5073486;28;20194;-80
2023/09/20 13:02:11;;;;;;;1.00;1.00;;;29.00;92.60;;;;;;5071715;28;20501;-82
2023/09/20 13:04:37;;;;;;;1.33;1.00;;;28.90;93.00;;;;;;5072621;28;20289;-82
2023/09/20 13:07:03;;;;;;;1.33;1.23;;;28.90;93.30;;;;;;5080576;28;20188;-81
2023/09/20 13:09:29;;;;;;;1.10;1.00;;;28.90;93.60;;;;;;5082351;28;20238;-82
2023/09/20 13:11:55;;;;;;;1.07;1.00;;;28.90;93.30;;;;;;5081253;28;20498;-82
2023/09/20 13:14:21;;;;;;;1.47;1.37;;;28.90;93.80;;;;;;5079321;28;20449;-82
2023/09/20 13:16:49;;;;;;;1.10;0.90;;;28.90;92.90;;;;;;5081637;28;20369;-81
2023/09/20 13:19:18;;;;;;;1.00;1.00;;;29.00;93.10;;;;;;5080871;28;20445;-82
2023/09/20 13:21:44;;;;;;;2.33;0.93;;;29.00;93.30;;;;;;5079532;28;20433;-81
2023/09/20 13:24:11;;;;;;;2.27;1.00;;;29.00;93.20;;;;;;5080798;28;20448;-80
2023/09/20 13:26:38;;;;;;;1.33;1.13;;;29.00;92.80;;;;;;5079394;28;20461;-80
2023/09/20 13:29:04;;;;;;;1.27;1.17;;;29.10;92.00;;;;;;5077869;28;20441;-82
2023/09/20 13:31:31;;;;;;;1.33;1.20;;;29.10;92.00;;;;;;5083918;28;20440;-81